createdAt,value
2023-04-15T00:00:59.876Z,5.60
2023-04-15T00:03:27.490Z,5.60
2023-04-15T00:05:54.359Z,5.70
2023-04-15T00:08:21.040Z,5.70
2023-04-15T00:10:48.110Z,5.60
2023-04-15T00:13:15.583Z,5.70
2023-04-15T00:15:43.297Z,5.70
2023-04-15T00:18:10.500Z,5.70
2023-04-15T00:20:37.883Z,5.60
2023-04-15T00:23:05.612Z,5.60
2023-04-15T00:25:32.665Z,5.60
2023-04-15T00:27:59.646Z,5.60
2023-04-15T00:30:26.905Z,5.60
2023-04-15T00:32:53.728Z,5.60
2023-04-15T00:35:21.109Z,5.60
2023-04-15T00:37:47.764Z,5.50
2023-04-15T00:40:19.010Z,5.50
2023-04-15T00:42:45.764Z,5.50
2023-04-15T00:45:13.308Z,5.50
2023-04-15T00:47:43.053Z,5.50
2023-04-15T00:50:11.067Z,5.50
2023-04-15T00:52:38.122Z,5.40
2023-04-15T00:55:05.721Z,5.40
2023-04-15T00:57:33.365Z,5.40
2023-04-15T01:00:01.052Z,5.40
2023-04-15T01:02:28.343Z,5.40
2023-04-15T01:04:56.403Z,5.40
2023-04-15T01:07:23.310Z,5.40
2023-04-15T01:09:50.243Z,5.30
2023-04-15T01:12:18.089Z,5.30
2023-04-15T01:14:45.224Z,5.30
2023-04-15T01:17:12.578Z,5.30
2023-04-15T01:19:40.121Z,5.20
2023-04-15T01:22:07.120Z,5.20
2023-04-15T01:24:35.329Z,5.20
2023-04-15T01:27:02.274Z,5.20
2023-04-15T01:29:29.765Z,5.20
2023-04-15T01:31:56.943Z,5.20
2023-04-15T01:34:24.012Z,5.20
2023-04-15T01:36:51.180Z,5.20
2023-04-15T01:39:18.240Z,5.20
2023-04-15T01:41:44.935Z,5.20
2023-04-15T01:44:11.749Z,5.20
2023-04-15T01:46:38.806Z,5.20
2023-04-15T01:49:06.243Z,5.10
2023-04-15T01:51:33.249Z,5.10
2023-04-15T01:53:59.966Z,5.10
2023-04-15T01:56:27.000Z,5.10
2023-04-15T01:58:53.773Z,5.10
2023-04-15T02:01:21.101Z,5.20
2023-04-15T02:03:48.539Z,5.20
2023-04-15T02:06:15.887Z,5.20
2023-04-15T02:08:43.297Z,5.20
2023-04-15T02:11:10.338Z,5.10
2023-04-15T02:13:37.137Z,5.10
2023-04-15T02:16:04.397Z,5.10
2023-04-15T02:18:31.107Z,5.10
2023-04-15T02:20:59.066Z,5.10
2023-04-15T02:23:25.980Z,5.10
2023-04-15T02:25:54.210Z,5.10
2023-04-15T02:28:21.857Z,5.10
2023-04-15T02:30:53.562Z,5.10
2023-04-15T02:33:21.852Z,5.10
2023-04-15T02:35:48.867Z,5.10
2023-04-15T02:38:17.867Z,5.10
2023-04-15T02:40:44.842Z,5.10
2023-04-15T02:43:11.639Z,5.10
2023-04-15T02:45:38.618Z,5.10
2023-04-15T02:48:06.704Z,5.10
2023-04-15T02:50:33.574Z,5.10
2023-04-15T02:53:01.839Z,5.10
2023-04-15T02:55:29.232Z,5.10
2023-04-15T02:57:56.309Z,5.10
2023-04-15T03:00:25.441Z,5.10
2023-04-15T03:02:57.766Z,5.10
2023-04-15T03:05:27.515Z,5.10
2023-04-15T03:07:54.350Z,5.10
2023-04-15T03:10:21.978Z,5.10
2023-04-15T03:12:49.543Z,5.10
2023-04-15T03:15:16.793Z,5.10
2023-04-15T03:17:43.834Z,5.10
2023-04-15T03:20:11.370Z,5.10
2023-04-15T03:22:38.180Z,5.10
2023-04-15T03:25:05.524Z,5.10
2023-04-15T03:27:32.291Z,5.10
2023-04-15T03:29:59.236Z,5.10
2023-04-15T03:32:27.492Z,5.10
2023-04-15T03:34:54.226Z,5.10
2023-04-15T03:37:21.317Z,5.10
2023-04-15T03:39:48.294Z,5.10
2023-04-15T03:42:15.338Z,5.10
2023-04-15T03:44:42.293Z,5.10
2023-04-15T03:47:09.285Z,5.10
2023-04-15T03:49:37.098Z,5.10
2023-04-15T03:52:04.129Z,5.10
2023-04-15T03:54:31.086Z,5.10
2023-04-15T03:56:57.854Z,5.10
2023-04-15T03:59:25.023Z,5.10
2023-04-15T04:01:52.260Z,5.10
2023-04-15T04:04:19.132Z,5.10
2023-04-15T04:06:46.641Z,5.10
2023-04-15T04:09:13.368Z,5.10
2023-04-15T04:11:40.071Z,5.20
2023-04-15T04:14:07.079Z,5.20
2023-04-15T04:16:33.778Z,5.10
2023-04-15T04:19:00.781Z,5.10
2023-04-15T04:21:28.230Z,5.10
2023-04-15T04:23:55.124Z,5.10
2023-04-15T04:26:22.592Z,5.10
2023-04-15T04:28:49.352Z,5.10
2023-04-15T04:31:16.235Z,5.00
2023-04-15T04:33:43.185Z,5.00
2023-04-15T04:36:10.122Z,5.00
2023-04-15T04:38:37.306Z,5.00
2023-04-15T04:41:04.223Z,5.00
2023-04-15T04:43:30.984Z,5.00
2023-04-15T04:45:57.980Z,5.00
2023-04-15T04:48:24.934Z,5.00
2023-04-15T04:50:52.099Z,5.00
2023-04-15T04:53:19.135Z,5.00
2023-04-15T04:55:45.915Z,4.90
2023-04-15T04:58:12.696Z,5.00
2023-04-15T05:00:42.390Z,5.00
2023-04-15T05:03:09.452Z,5.00
2023-04-15T05:05:39.404Z,4.90
2023-04-15T05:08:07.448Z,4.90
2023-04-15T05:10:34.260Z,4.90
2023-04-15T05:13:02.248Z,4.90
2023-04-15T05:15:29.376Z,4.90
2023-04-15T05:17:56.196Z,4.80
2023-04-15T05:20:22.972Z,4.80
2023-04-15T05:22:50.022Z,4.80
2023-04-15T05:25:16.985Z,4.80
2023-04-15T05:27:43.958Z,4.80
2023-04-15T05:30:13.313Z,4.80
2023-04-15T05:32:40.709Z,4.80
2023-04-15T05:35:08.099Z,4.80
2023-04-15T05:37:35.090Z,4.80
2023-04-15T05:40:02.097Z,4.80
2023-04-15T05:42:28.903Z,4.80
2023-04-15T05:44:56.031Z,4.80
2023-04-15T05:47:22.860Z,4.80
2023-04-15T05:49:49.849Z,4.70
2023-04-15T05:52:16.953Z,4.70
2023-04-15T05:54:44.404Z,4.70
2023-04-15T05:57:11.184Z,4.70
2023-04-15T05:59:38.912Z,4.60
2023-04-15T06:02:06.583Z,4.70
2023-04-15T06:04:33.673Z,4.60
2023-04-15T06:07:00.619Z,4.60
2023-04-15T06:09:27.711Z,4.60
2023-04-15T06:11:54.652Z,4.60
2023-04-15T06:14:21.353Z,4.60
2023-04-15T06:16:48.440Z,4.60
2023-04-15T06:19:16.033Z,4.50
2023-04-15T06:21:43.086Z,4.50
2023-04-15T06:24:10.046Z,4.50
2023-04-15T06:26:36.995Z,4.50
2023-04-15T06:29:03.882Z,4.60
2023-04-15T06:31:31.379Z,4.60
2023-04-15T06:33:58.118Z,4.70
2023-04-15T06:36:24.848Z,4.80
2023-04-15T06:38:51.645Z,4.80
2023-04-15T06:41:18.517Z,4.90
2023-04-15T06:43:45.287Z,4.90
2023-04-15T06:46:12.358Z,5.00
2023-04-15T06:48:39.105Z,5.00
2023-04-15T06:51:06.470Z,5.10
2023-04-15T06:53:33.658Z,5.10
2023-04-15T06:56:00.633Z,5.10
2023-04-15T06:58:27.631Z,5.20
2023-04-15T07:00:54.694Z,5.30
2023-04-15T07:03:21.683Z,5.20
2023-04-15T07:05:48.958Z,5.20
2023-04-15T07:08:15.708Z,5.30
2023-04-15T07:10:42.517Z,5.30
2023-04-15T07:13:09.587Z,5.30
2023-04-15T07:15:36.287Z,5.40
2023-04-15T07:18:03.136Z,5.40
2023-04-15T07:20:30.031Z,5.40
2023-04-15T07:22:57.560Z,5.50
2023-04-15T07:25:24.376Z,5.50
2023-04-15T07:27:51.455Z,5.50
2023-04-15T07:30:18.220Z,5.50
2023-04-15T07:32:45.017Z,5.60
2023-04-15T07:35:12.151Z,5.60
2023-04-15T07:37:38.960Z,5.60
2023-04-15T07:40:07.610Z,5.60
2023-04-15T07:42:35.008Z,5.60
2023-04-15T07:45:01.797Z,5.60
2023-04-15T07:47:28.561Z,5.70
2023-04-15T07:49:55.606Z,5.70
2023-04-15T07:52:22.678Z,5.60
2023-04-15T07:54:49.661Z,5.70
2023-04-15T07:57:17.157Z,5.70
2023-04-15T07:59:43.915Z,5.80
2023-04-15T08:02:12.223Z,5.80
2023-04-15T08:04:39.512Z,5.90
2023-04-15T08:07:07.190Z,5.90
2023-04-15T08:09:37.070Z,5.90
2023-04-15T08:12:04.254Z,5.90
2023-04-15T08:14:31.040Z,5.90
2023-04-15T08:16:57.791Z,5.90
2023-04-15T08:19:24.534Z,6.00
2023-04-15T08:21:52.113Z,6.10
2023-04-15T08:24:18.875Z,6.20
2023-04-15T08:26:46.935Z,6.40
2023-04-15T08:29:14.108Z,6.60
2023-04-15T08:31:41.152Z,6.70
2023-04-15T08:34:07.964Z,6.80
2023-04-15T08:36:35.045Z,6.80
2023-04-15T08:39:02.343Z,6.80
2023-04-15T08:41:35.859Z,6.80
2023-04-15T08:44:05.264Z,6.90
2023-04-15T08:46:35.784Z,6.80
2023-04-15T08:49:05.412Z,6.80
2023-04-15T08:51:33.998Z,6.80
2023-04-15T08:54:02.805Z,6.80
2023-04-15T08:56:33.346Z,6.80
2023-04-15T08:59:00.825Z,6.90
2023-04-15T09:01:28.394Z,6.90
2023-04-15T09:03:57.136Z,6.90
2023-04-15T09:06:25.702Z,6.90
2023-04-15T09:08:53.258Z,6.80
2023-04-15T09:11:21.591Z,6.80
2023-04-15T09:13:49.567Z,6.80
2023-04-15T09:16:28.499Z,6.80
2023-04-15T09:18:55.304Z,6.70
2023-04-15T09:21:23.592Z,6.70
2023-04-15T09:24:00.096Z,6.70
2023-04-15T09:26:34.782Z,6.70
2023-04-15T09:29:10.701Z,6.70
2023-04-15T09:31:37.847Z,6.70
2023-04-15T09:34:38.682Z,6.70
2023-04-15T09:37:07.536Z,6.70
2023-04-15T09:39:51.327Z,6.80
2023-04-15T09:42:24.699Z,6.90
2023-04-15T09:44:53.091Z,7.00
2023-04-15T09:47:31.745Z,7.10
2023-04-15T09:50:00.362Z,7.30
2023-04-15T09:52:27.532Z,7.40
2023-04-15T09:54:58.516Z,7.60
2023-04-15T09:57:25.577Z,7.60
2023-04-15T09:59:52.935Z,7.70
2023-04-15T10:02:23.482Z,7.80
2023-04-15T10:04:52.093Z,8.10
2023-04-15T10:07:22.355Z,8.30
2023-04-15T10:09:49.700Z,8.50
2023-04-15T10:12:18.584Z,8.80
2023-04-15T10:14:53.452Z,8.80
2023-04-15T10:17:23.011Z,8.90
2023-04-15T10:19:50.812Z,8.90
2023-04-15T10:22:18.471Z,8.80
2023-04-15T10:24:47.225Z,8.60
2023-04-15T10:27:18.460Z,8.40
2023-04-15T10:29:45.698Z,8.40
2023-04-15T10:32:13.778Z,8.40
2023-04-15T10:34:40.928Z,8.30
2023-04-15T10:37:11.059Z,8.20
2023-04-15T10:39:38.180Z,8.10
2023-04-15T10:42:10.250Z,8.00
2023-04-15T10:44:41.909Z,7.90
2023-04-15T10:47:14.076Z,7.80
2023-04-15T10:49:46.586Z,7.70
2023-04-15T10:52:15.560Z,7.60
2023-04-15T10:54:42.372Z,7.50
2023-04-15T10:57:23.214Z,7.60
2023-04-15T10:59:59.157Z,7.70
2023-04-15T11:02:46.566Z,7.70
2023-04-15T11:05:18.536Z,7.90
2023-04-15T11:07:55.392Z,7.90
2023-04-15T11:10:31.476Z,7.90
2023-04-15T11:13:03.469Z,7.90
2023-04-15T11:15:37.959Z,8.10
2023-04-15T11:18:18.589Z,8.30
2023-04-15T11:20:55.000Z,8.60
2023-04-15T11:23:48.032Z,8.80
2023-04-15T11:26:15.508Z,9.10
2023-04-15T11:28:46.360Z,9.20
2023-04-15T11:31:16.455Z,9.40
2023-04-15T11:34:03.944Z,9.40
2023-04-15T11:36:34.513Z,9.30
2023-04-15T11:39:01.301Z,9.20
2023-04-15T11:41:28.091Z,9.10
2023-04-15T11:43:54.861Z,9.10
2023-04-15T11:46:22.923Z,9.10
2023-04-15T11:48:49.796Z,9.10
2023-04-15T11:51:16.901Z,8.90
2023-04-15T11:53:48.629Z,8.80
2023-04-15T11:56:23.911Z,8.70
2023-04-15T11:58:59.880Z,8.60
2023-04-15T12:01:39.461Z,8.50
2023-04-15T12:04:20.863Z,8.50
2023-04-15T12:06:49.310Z,8.60
2023-04-15T12:09:16.960Z,8.60
2023-04-15T12:11:44.977Z,8.60
2023-04-15T12:14:13.762Z,8.50
2023-04-15T12:16:49.075Z,8.50
2023-04-15T12:19:26.751Z,8.50
2023-04-15T12:22:05.505Z,8.60
2023-04-15T12:24:36.772Z,8.80
2023-04-15T12:27:06.262Z,8.80
2023-04-15T12:29:34.423Z,8.70
2023-04-15T12:32:22.206Z,8.70
2023-04-15T12:34:54.462Z,8.70
2023-04-15T12:37:21.619Z,8.70
2023-04-15T12:39:49.921Z,8.70
2023-04-15T12:42:17.775Z,8.70
2023-04-15T12:44:44.995Z,8.70
2023-04-15T12:47:12.695Z,8.50
2023-04-15T12:49:39.906Z,8.50
2023-04-15T12:52:07.183Z,8.50
2023-04-15T12:54:34.683Z,8.40
2023-04-15T12:57:02.186Z,8.20
2023-04-15T12:59:30.512Z,8.20
2023-04-15T13:01:58.003Z,8.10
2023-04-15T13:04:25.257Z,8.10
2023-04-15T13:06:52.062Z,8.10
2023-04-15T13:09:18.757Z,8.00
2023-04-15T13:11:46.052Z,7.90
2023-04-15T13:14:13.180Z,7.90
2023-04-15T13:16:40.398Z,7.90
2023-04-15T13:19:07.381Z,8.00
2023-04-15T13:21:35.959Z,8.00
2023-04-15T13:24:04.069Z,8.00
2023-04-15T13:26:31.859Z,8.00
2023-04-15T13:28:59.108Z,8.10
2023-04-15T13:31:26.394Z,8.10
2023-04-15T13:33:53.340Z,8.10
2023-04-15T13:36:20.168Z,8.10
2023-04-15T13:38:57.062Z,8.10
2023-04-15T13:41:23.790Z,8.10
2023-04-15T13:43:50.558Z,8.10
2023-04-15T13:46:17.732Z,8.00
2023-04-15T13:48:44.558Z,8.00
2023-04-15T13:51:11.304Z,8.00
2023-04-15T13:53:39.608Z,8.00
2023-04-15T13:56:07.909Z,8.00
2023-04-15T13:58:34.740Z,8.00
2023-04-15T14:01:03.262Z,8.10
2023-04-15T14:03:31.852Z,8.20
2023-04-15T14:05:59.169Z,8.20
2023-04-15T14:08:40.597Z,8.20
2023-04-15T14:11:15.609Z,8.30
2023-04-15T14:13:42.566Z,8.30
2023-04-15T14:16:09.651Z,8.30
2023-04-15T14:18:37.461Z,8.20
2023-04-15T14:21:05.647Z,8.10
2023-04-15T14:23:32.449Z,8.20
2023-04-15T14:25:59.186Z,8.10
2023-04-15T14:28:39.659Z,8.10
2023-04-15T14:31:06.524Z,8.10
2023-04-15T14:33:33.801Z,8.00
2023-04-15T14:36:00.695Z,8.00
2023-04-15T14:38:27.712Z,8.00
2023-04-15T14:40:54.457Z,8.10
2023-04-15T14:43:21.762Z,8.00
2023-04-15T14:45:48.807Z,8.10
2023-04-15T14:48:16.563Z,8.10
2023-04-15T14:50:43.367Z,8.20
2023-04-15T14:53:10.430Z,8.00
2023-04-15T14:55:37.474Z,8.00
2023-04-15T14:58:04.497Z,8.10
2023-04-15T15:00:31.487Z,8.20
2023-04-15T15:02:59.138Z,8.10
2023-04-15T15:05:26.051Z,8.10
2023-04-15T15:07:52.919Z,8.10
2023-04-15T15:10:33.222Z,8.20
2023-04-15T15:13:08.246Z,8.10
2023-04-15T15:15:37.087Z,8.10
2023-04-15T15:18:04.357Z,8.10
2023-04-15T15:20:32.016Z,8.00
2023-04-15T15:22:58.733Z,7.90
2023-04-15T15:25:27.011Z,7.90
2023-04-15T15:27:53.781Z,7.90
2023-04-15T15:30:20.641Z,7.80
2023-04-15T15:32:48.051Z,7.70
2023-04-15T15:35:15.220Z,7.60
2023-04-15T15:37:42.915Z,7.60
2023-04-15T15:40:10.548Z,7.60
2023-04-15T15:42:37.426Z,7.60
2023-04-15T15:45:05.079Z,7.60
2023-04-15T15:47:32.184Z,7.60
2023-04-15T15:50:02.612Z,7.60
2023-04-15T15:52:30.421Z,7.60
2023-04-15T15:54:57.478Z,7.50
2023-04-15T15:57:24.476Z,7.50
2023-04-15T16:00:00.772Z,7.50
2023-04-15T16:02:59.953Z,7.60
2023-04-15T16:05:19.828Z,7.60
2023-04-15T16:07:46.797Z,7.60
2023-04-15T16:10:14.189Z,7.70
2023-04-15T16:12:41.997Z,7.70
2023-04-15T16:15:10.435Z,7.70
2023-04-15T16:17:37.225Z,7.70
2023-04-15T16:20:05.651Z,7.70
2023-04-15T16:22:34.602Z,7.60
2023-04-15T16:25:01.983Z,7.70
2023-04-15T16:27:29.076Z,7.70
2023-04-15T16:29:55.870Z,7.70
2023-04-15T16:32:23.101Z,7.70
2023-04-15T16:34:49.956Z,7.70
2023-04-15T16:37:16.715Z,7.70
2023-04-15T16:39:43.522Z,7.70
2023-04-15T16:42:10.806Z,7.70
2023-04-15T16:44:38.226Z,7.80
2023-04-15T16:47:05.661Z,7.80
2023-04-15T16:49:32.452Z,7.80
2023-04-15T16:51:59.472Z,7.80
2023-04-15T16:54:26.165Z,7.80
2023-04-15T16:56:52.874Z,7.80
2023-04-15T16:59:19.680Z,7.80
2023-04-15T17:01:47.578Z,7.80
2023-04-15T17:04:14.598Z,7.80
2023-04-15T17:06:41.553Z,7.80
2023-04-15T17:09:08.563Z,7.70
2023-04-15T17:11:35.615Z,7.60
2023-04-15T17:14:06.168Z,7.60
2023-04-15T17:16:33.375Z,7.60
2023-04-15T17:19:00.134Z,7.50
2023-04-15T17:21:27.481Z,7.50
2023-04-15T17:23:54.591Z,7.50
2023-04-15T17:26:22.164Z,7.50
2023-04-15T17:28:48.899Z,7.50
2023-04-15T17:31:15.701Z,7.50
2023-04-15T17:34:00.054Z,7.50
2023-04-15T17:36:31.543Z,7.50
2023-04-15T17:38:58.401Z,7.40
2023-04-15T17:41:25.512Z,7.40
2023-04-15T17:43:52.266Z,7.40
2023-04-15T17:46:19.608Z,7.30
2023-04-15T17:48:47.385Z,7.30
2023-04-15T17:51:14.373Z,7.30
2023-04-15T17:53:42.113Z,7.30
2023-04-15T17:56:08.846Z,7.20
2023-04-15T17:58:35.933Z,7.20
2023-04-15T18:01:02.957Z,7.10
2023-04-15T18:03:30.043Z,7.10
2023-04-15T18:05:56.891Z,7.10
2023-04-15T18:08:23.720Z,7.10
2023-04-15T18:10:50.668Z,7.10
2023-04-15T18:13:17.439Z,7.10
2023-04-15T18:15:46.270Z,7.10
2023-04-15T18:18:14.155Z,7.00
2023-04-15T18:20:40.973Z,7.00
2023-04-15T18:23:07.958Z,7.00
2023-04-15T18:25:34.966Z,7.00
2023-04-15T18:28:01.782Z,7.00
2023-04-15T18:30:28.545Z,7.00
2023-04-15T18:32:55.729Z,7.00
2023-04-15T18:35:22.824Z,7.00
2023-04-15T18:37:49.812Z,7.00
2023-04-15T18:40:16.669Z,6.90
2023-04-15T18:42:43.381Z,6.90
2023-04-15T18:45:10.886Z,6.90
2023-04-15T18:47:38.075Z,6.90
2023-04-15T18:50:05.243Z,6.90
2023-04-15T18:52:32.427Z,6.90
2023-04-15T18:54:59.209Z,6.80
2023-04-15T18:57:33.156Z,6.80
2023-04-15T19:00:02.080Z,6.80
2023-04-15T19:02:29.572Z,6.80
2023-04-15T19:04:56.337Z,6.80
2023-04-15T19:07:48.462Z,6.80
2023-04-15T19:10:15.270Z,6.80
2023-04-15T19:12:42.512Z,6.80
2023-04-15T19:15:09.532Z,6.80
2023-04-15T19:17:36.785Z,6.80
2023-04-15T19:20:03.802Z,6.80
2023-04-15T19:22:30.995Z,6.80
2023-04-15T19:24:58.265Z,6.80
2023-04-15T19:27:25.019Z,6.80
2023-04-15T19:29:51.787Z,6.80
2023-04-15T19:32:18.946Z,6.80
2023-04-15T19:35:06.636Z,6.80
2023-04-15T19:37:33.642Z,6.70
2023-04-15T19:40:00.493Z,6.70
2023-04-15T19:42:27.629Z,6.70
2023-04-15T19:44:54.358Z,6.80
2023-04-15T19:47:22.570Z,6.80
2023-04-15T19:49:52.250Z,6.70
2023-04-15T19:52:19.989Z,6.70
2023-04-15T19:55:14.039Z,6.70
2023-04-15T19:57:40.897Z,6.70
2023-04-15T20:00:09.384Z,6.70
2023-04-15T20:02:36.273Z,6.70
2023-04-15T20:05:03.278Z,6.70
2023-04-15T20:07:30.944Z,6.70
2023-04-15T20:09:57.643Z,6.70
2023-04-15T20:12:49.439Z,6.70
2023-04-15T20:15:12.053Z,6.70
2023-04-15T20:17:39.575Z,6.70
2023-04-15T20:20:07.935Z,6.70
2023-04-15T20:22:36.183Z,6.70
2023-04-15T20:25:03.513Z,6.70
2023-04-15T20:27:30.810Z,6.70
2023-04-15T20:29:57.943Z,6.80
2023-04-15T20:32:24.828Z,6.80
2023-04-15T20:34:52.084Z,6.80
2023-04-15T20:37:18.864Z,6.80
2023-04-15T20:39:46.058Z,6.80
2023-04-15T20:42:12.809Z,6.80
2023-04-15T20:44:40.292Z,6.80
2023-04-15T20:47:07.763Z,6.80
2023-04-15T20:49:39.269Z,6.80
2023-04-15T20:52:07.561Z,6.90
2023-04-15T20:54:34.676Z,6.80
2023-04-15T20:57:02.594Z,6.90
2023-04-15T20:59:29.403Z,6.80
2023-04-15T21:01:57.488Z,6.80
2023-04-15T21:04:24.729Z,6.90
2023-04-15T21:06:54.790Z,6.90
2023-04-15T21:09:22.152Z,6.90
2023-04-15T21:14:19.827Z,6.90
2023-04-15T21:16:46.690Z,6.90
2023-04-15T21:19:14.020Z,6.90
2023-04-15T21:21:40.792Z,6.90
2023-04-15T21:24:10.760Z,6.80
2023-04-15T21:26:37.931Z,6.80
2023-04-15T21:29:06.216Z,6.90
2023-04-15T21:31:34.045Z,6.80
2023-04-15T21:34:00.822Z,6.90
2023-04-15T21:36:28.546Z,6.90
2023-04-15T21:38:55.337Z,6.90
2023-04-15T21:41:22.232Z,6.80
2023-04-15T21:43:49.535Z,6.90
2023-04-15T21:46:24.452Z,6.80
2023-04-15T21:48:54.930Z,6.80
2023-04-15T21:51:22.280Z,6.80
2023-04-15T21:53:49.114Z,6.80
2023-04-15T21:56:16.303Z,6.80
2023-04-15T21:58:43.107Z,6.80
2023-04-15T22:01:10.360Z,6.80
2023-04-15T22:03:37.292Z,6.80
2023-04-15T22:06:04.762Z,6.80
2023-04-15T22:08:38.691Z,6.80
2023-04-15T22:11:21.277Z,6.80
2023-04-15T22:13:48.427Z,6.80
2023-04-15T22:16:15.194Z,6.80
2023-04-15T22:18:42.391Z,6.80
2023-04-15T22:21:09.151Z,6.80
2023-04-15T22:23:36.452Z,6.80
2023-04-15T22:26:04.948Z,6.80
2023-04-15T22:28:31.733Z,6.80
2023-04-15T22:30:59.407Z,6.80
2023-04-15T22:33:26.269Z,6.80
2023-04-15T22:35:53.438Z,6.90
2023-04-15T22:38:20.439Z,6.90
2023-04-15T22:40:47.160Z,6.80
2023-04-15T22:43:13.888Z,6.80
2023-04-15T22:45:41.023Z,6.80
2023-04-15T22:48:08.189Z,6.80
2023-04-15T22:50:38.464Z,6.80
2023-04-15T22:53:05.297Z,6.70
2023-04-15T22:55:32.062Z,6.70
2023-04-15T22:57:59.195Z,6.70
2023-04-15T23:00:26.499Z,6.70
2023-04-15T23:02:53.312Z,6.60
2023-04-15T23:05:20.699Z,6.60
2023-04-15T23:07:47.514Z,6.60
2023-04-15T23:10:14.683Z,6.60
2023-04-15T23:12:41.422Z,6.60
2023-04-15T23:15:09.613Z,6.60
2023-04-15T23:17:36.428Z,6.60
2023-04-15T23:20:03.642Z,6.60
2023-04-15T23:22:30.725Z,6.60
2023-04-15T23:24:57.504Z,6.60
2023-04-15T23:27:24.654Z,6.60
2023-04-15T23:29:51.805Z,6.60
2023-04-15T23:32:19.013Z,6.50
2023-04-15T23:34:45.783Z,6.50
2023-04-15T23:37:12.934Z,6.50
2023-04-15T23:39:39.723Z,6.50
2023-04-15T23:42:06.881Z,6.40
2023-04-15T23:44:34.239Z,6.40
2023-04-15T23:47:01.126Z,6.40
2023-04-15T23:49:27.968Z,6.40
2023-04-15T23:51:54.723Z,6.40
2023-04-15T23:54:21.409Z,6.40
2023-04-15T23:56:48.677Z,6.40
2023-04-15T23:59:15.527Z,6.40
